Time;durP1;ratioP1;P1;durP2;ratioP2;P2;SDS_P1;SDS_P2;PMS_P1;PMS_P2;Temp;Humidity;BMP_temperature;BMP_pressure;BME280_temperature;BME280_humidity;BME280_pressure;Samples;Min_cycle;Max_cycle;Signal;HPM_P1;HPM_P2
2021/03/31 00:00:19;;;;;;;10.40;6.03;;;8.20;99.90;;;;;;5097496;28;20460;-73
2021/03/31 00:02:46;;;;;;;10.03;6.57;;;8.10;99.90;;;;;;5094765;28;20867;-73
2021/03/31 00:05:13;;;;;;;9.10;6.30;;;8.10;99.90;;;;;;5091122;28;20526;-73
2021/03/31 00:07:39;;;;;;;10.90;7.03;;;8.00;99.90;;;;;;5090856;28;20572;-74
2021/03/31 00:10:17;;;;;;;9.50;6.73;;;7.90;99.90;;;;;;5090625;28;20587;-73
2021/03/31 00:12:44;;;;;;;11.00;6.80;;;8.00;99.90;;;;;;5091103;28;20541;-73
2021/03/31 00:15:11;;;;;;;10.97;6.67;;;8.00;99.90;;;;;;5091116;28;20477;-73
2021/03/31 00:17:37;;;;;;;9.77;7.33;;;7.90;99.90;;;;;;5090812;28;20466;-73
2021/03/31 00:20:05;;;;;;;9.00;6.47;;;8.00;99.90;;;;;;5090482;28;20533;-73
2021/03/31 00:22:31;;;;;;;9.60;6.60;;;7.90;99.90;;;;;;5090608;28;20561;-73
2021/03/31 00:24:58;;;;;;;9.50;7.40;;;7.90;99.90;;;;;;5090761;28;20477;-73
2021/03/31 00:27:25;;;;;;;8.50;6.27;;;7.80;99.90;;;;;;5091007;28;21034;-73
2021/03/31 00:29:51;;;;;;;8.80;6.60;;;7.80;99.90;;;;;;5090230;28;20478;-73
2021/03/31 00:32:18;;;;;;;7.93;7.10;;;7.80;99.90;;;;;;5090503;28;21004;-73
2021/03/31 00:34:44;;;;;;;7.83;6.97;;;7.70;99.90;;;;;;5090517;28;20485;-74
2021/03/31 00:37:10;;;;;;;8.30;6.70;;;7.70;99.90;;;;;;5090358;28;20468;-73
2021/03/31 00:39:37;;;;;;;11.63;6.93;;;7.70;99.90;;;;;;5090248;28;20533;-73
2021/03/31 00:42:03;;;;;;;7.87;6.70;;;7.70;99.90;;;;;;5090261;28;20569;-73
2021/03/31 00:44:31;;;;;;;9.60;7.10;;;7.60;99.90;;;;;;5090313;28;20450;-73
2021/03/31 00:46:57;;;;;;;8.30;7.03;;;7.50;99.90;;;;;;5090459;28;20591;-73
2021/03/31 00:49:23;;;;;;;8.90;7.10;;;7.40;99.90;;;;;;5090453;28;20478;-73
2021/03/31 00:51:50;;;;;;;12.77;7.80;;;7.30;99.90;;;;;;5090284;28;20442;-73
2021/03/31 00:54:17;;;;;;;9.03;6.60;;;7.20;99.90;;;;;;5090847;28;20591;-73
2021/03/31 00:56:43;;;;;;;11.07;7.00;;;7.10;99.90;;;;;;5090389;28;20536;-73
2021/03/31 00:59:10;;;;;;;10.40;6.60;;;7.00;99.90;;;;;;5090536;28;20533;-74
2021/03/31 01:01:37;;;;;;;11.23;6.70;;;7.10;99.90;;;;;;5089912;28;20485;-74
2021/03/31 01:04:04;;;;;;;9.70;7.30;;;7.10;99.90;;;;;;5090331;28;20473;-74
2021/03/31 01:06:30;;;;;;;9.63;7.30;;;7.10;99.90;;;;;;5090251;28;20524;-74
2021/03/31 01:08:57;;;;;;;10.60;6.90;;;7.00;99.90;;;;;;5090107;28;21067;-73
2021/03/31 01:11:33;;;;;;;10.57;6.67;;;7.00;99.90;;;;;;5090089;28;20529;-74
2021/03/31 01:14:05;;;;;;;10.60;7.47;;;6.90;99.90;;;;;;5090386;28;20573;-73
2021/03/31 01:16:43;;;;;;;7.77;6.97;;;6.80;99.90;;;;;;5089995;28;20482;-73
2021/03/31 01:19:40;;;;;;;9.50;6.63;;;6.80;99.90;;;;;;5090394;28;20474;-74
2021/03/31 01:22:41;;;;;;;9.77;6.77;;;6.70;99.90;;;;;;5090176;28;20512;-74
2021/03/31 01:25:17;;;;;;;9.83;6.83;;;6.60;99.90;;;;;;5090110;28;20951;-74
2021/03/31 01:28:04;;;;;;;8.10;7.27;;;6.60;99.90;;;;;;5093142;28;20492;-73
2021/03/31 01:30:38;;;;;;;10.37;6.63;;;6.50;99.90;;;;;;5094132;28;20441;-73
2021/03/31 01:33:52;;;;;;;9.40;6.57;;;6.40;99.90;;;;;;5094286;28;20949;-73
2021/03/31 01:36:20;;;;;;;7.10;6.10;;;6.50;99.90;;;;;;5081168;28;20945;-73
2021/03/31 01:38:51;;;;;;;10.43;6.97;;;6.60;99.90;;;;;;5093994;28;21203;-73
2021/03/31 01:41:19;;;;;;;8.60;6.60;;;6.60;99.90;;;;;;5093923;28;20848;-73
2021/03/31 01:43:49;;;;;;;8.50;7.23;;;6.60;99.90;;;;;;5093993;28;20478;-74
2021/03/31 01:46:17;;;;;;;8.70;6.40;;;6.60;99.90;;;;;;5094104;28;20521;-73
2021/03/31 01:48:44;;;;;;;12.00;6.77;;;6.40;99.90;;;;;;5094001;28;20544;-74
2021/03/31 01:51:12;;;;;;;8.73;7.10;;;6.40;99.90;;;;;;5093565;28;20452;-73
2021/03/31 01:53:40;;;;;;;10.93;7.80;;;6.40;99.90;;;;;;5093742;28;20545;-73
2021/03/31 01:56:08;;;;;;;9.50;6.93;;;6.30;99.90;;;;;;5093920;28;20529;-74
2021/03/31 01:58:36;;;;;;;11.27;8.37;;;6.20;99.90;;;;;;5093789;28;20549;-73
2021/03/31 02:01:03;;;;;;;9.00;6.40;;;6.30;99.90;;;;;;5093617;28;20473;-74
2021/03/31 02:03:31;;;;;;;10.80;8.00;;;6.30;99.90;;;;;;5093680;28;20473;-73
2021/03/31 02:05:58;;;;;;;11.10;7.27;;;6.30;99.90;;;;;;5093583;28;20482;-73
2021/03/31 02:08:26;;;;;;;9.30;7.20;;;6.30;99.90;;;;;;5093660;28;20559;-74
2021/03/31 02:10:53;;;;;;;13.80;8.30;;;6.30;99.90;;;;;;5093465;28;20458;-74
2021/03/31 02:13:21;;;;;;;9.20;8.20;;;6.20;99.90;;;;;;5093232;28;20524;-74
2021/03/31 02:15:49;;;;;;;11.73;7.83;;;6.20;99.90;;;;;;5093415;28;20529;-74
2021/03/31 02:18:18;;;;;;;9.60;7.80;;;6.20;99.90;;;;;;5093503;28;20500;-74
2021/03/31 02:20:45;;;;;;;11.13;8.10;;;6.20;99.90;;;;;;5093019;28;20505;-74
2021/03/31 02:23:13;;;;;;;12.13;8.13;;;6.10;99.90;;;;;;5093344;28;20481;-73
2021/03/31 02:25:39;;;;;;;9.27;7.70;;;6.10;99.90;;;;;;5093155;28;20540;-74
2021/03/31 02:28:07;;;;;;;9.17;7.33;;;6.20;99.90;;;;;;5093123;28;20458;-74
2021/03/31 02:30:33;;;;;;;10.47;7.83;;;6.20;99.90;;;;;;5092973;28;20999;-74
2021/03/31 02:33:02;;;;;;;10.70;7.00;;;6.10;99.90;;;;;;5092935;28;20929;-74
2021/03/31 02:35:31;;;;;;;8.57;7.50;;;6.10;99.90;;;;;;5093054;28;20446;-73
2021/03/31 02:37:59;;;;;;;12.73;7.20;;;6.00;99.90;;;;;;5091616;28;20552;-74
2021/03/31 02:40:27;;;;;;;12.93;8.60;;;6.00;99.90;;;;;;5092624;28;20442;-73
2021/03/31 02:42:56;;;;;;;10.80;7.03;;;6.00;99.90;;;;;;5092534;28;20482;-73
2021/03/31 02:45:25;;;;;;;8.93;7.60;;;6.00;99.90;;;;;;5092725;28;20526;-74
2021/03/31 02:47:53;;;;;;;8.33;7.10;;;5.90;99.90;;;;;;5092719;28;20473;-73
2021/03/31 02:50:22;;;;;;;9.90;7.10;;;5.90;99.90;;;;;;5092486;28;21024;-73
2021/03/31 02:52:51;;;;;;;12.70;7.77;;;5.80;99.90;;;;;;5092834;28;20893;-73
2021/03/31 02:55:18;;;;;;;9.17;7.30;;;5.90;99.90;;;;;;5092405;28;21008;-73
2021/03/31 02:57:45;;;;;;;11.90;7.27;;;5.90;99.90;;;;;;5092622;28;20548;-74
2021/03/31 03:00:13;;;;;;;10.27;7.67;;;5.90;99.90;;;;;;5092699;28;20527;-73
2021/03/31 03:02:43;;;;;;;9.60;8.03;;;5.80;99.90;;;;;;5092722;28;20560;-73
2021/03/31 03:05:11;;;;;;;10.57;7.90;;;5.80;99.90;;;;;;5092259;28;20527;-73
2021/03/31 03:07:38;;;;;;;15.03;8.33;;;5.90;99.90;;;;;;5092648;28;20553;-74
2021/03/31 03:10:06;;;;;;;10.17;8.10;;;5.90;99.90;;;;;;5092085;28;20548;-73
2021/03/31 03:12:37;;;;;;;14.43;7.60;;;5.80;99.90;;;;;;5092393;28;20521;-74
2021/03/31 03:15:05;;;;;;;10.75;8.68;;;5.80;99.90;;;;;;5091236;28;20511;-73
2021/03/31 03:17:31;;;;;;;10.77;7.40;;;5.80;99.90;;;;;;5092359;28;20716;-76
2021/03/31 03:19:59;;;;;;;9.40;7.80;;;5.70;99.90;;;;;;5092016;28;20654;-73
2021/03/31 03:22:25;;;;;;;10.30;7.73;;;5.60;99.90;;;;;;5092167;28;20573;-73
2021/03/31 03:24:53;;;;;;;22.93;8.23;;;5.50;99.90;;;;;;5091913;28;20440;-73
2021/03/31 03:27:20;;;;;;;10.87;6.97;;;5.50;99.90;;;;;;5091705;28;20557;-76
2021/03/31 03:29:47;;;;;;;9.23;7.80;;;5.50;99.90;;;;;;5091518;28;20575;-75
2021/03/31 03:32:14;;;;;;;8.80;7.30;;;5.50;99.90;;;;;;5091695;28;20442;-73
2021/03/31 03:34:42;;;;;;;10.77;7.50;;;5.50;99.90;;;;;;5091923;28;20528;-73
2021/03/31 03:37:10;;;;;;;10.87;8.07;;;5.50;99.90;;;;;;5091859;28;20470;-76
2021/03/31 03:39:36;;;;;;;11.13;7.70;;;5.40;99.90;;;;;;5091578;28;20532;-75
2021/03/31 03:42:04;;;;;;;10.00;8.40;;;5.40;99.90;;;;;;5091674;28;20903;-75
2021/03/31 03:44:31;;;;;;;10.67;8.00;;;5.40;99.90;;;;;;5091680;28;21020;-73
2021/03/31 03:46:59;;;;;;;11.03;8.43;;;5.30;99.90;;;;;;5091276;28;20553;-73
2021/03/31 03:49:26;;;;;;;9.13;7.53;;;5.30;99.90;;;;;;5090956;28;20438;-73
2021/03/31 03:51:53;;;;;;;11.67;7.90;;;5.30;99.90;;;;;;5091459;28;20446;-75
2021/03/31 03:54:20;;;;;;;11.30;7.70;;;5.40;99.90;;;;;;5091212;28;21004;-73
2021/03/31 03:56:47;;;;;;;9.77;7.60;;;5.30;99.90;;;;;;5091248;28;20518;-73
2021/03/31 03:59:18;;;;;;;8.50;7.13;;;5.30;99.90;;;;;;5091253;28;20529;-74
2021/03/31 04:01:45;;;;;;;10.60;7.97;;;5.20;99.90;;;;;;5090891;28;20473;-75
2021/03/31 04:04:11;;;;;;;8.03;7.23;;;5.30;99.90;;;;;;5091213;28;20919;-73
2021/03/31 04:06:38;;;;;;;11.32;7.95;;;5.20;99.90;;;;;;5090582;28;20511;-75
2021/03/31 04:09:05;;;;;;;11.90;8.30;;;5.20;99.90;;;;;;5090988;28;20210;-74
2021/03/31 04:11:33;;;;;;;9.10;6.80;;;5.20;99.90;;;;;;5090354;28;20438;-75
2021/03/31 04:14:01;;;;;;;20.53;8.40;;;5.30;99.90;;;;;;5090841;28;20499;-73
2021/03/31 04:16:30;;;;;;;9.50;7.50;;;5.30;99.90;;;;;;5090897;28;20439;-73
2021/03/31 04:19:01;;;;;;;10.20;7.40;;;5.30;99.90;;;;;;5090849;28;20543;-73
2021/03/31 04:21:29;;;;;;;10.00;8.30;;;5.30;99.90;;;;;;5101816;28;20951;-73
2021/03/31 04:23:55;;;;;;;9.60;7.80;;;5.40;99.90;;;;;;5096628;28;20477;-73
2021/03/31 04:26:23;;;;;;;9.03;7.03;;;5.40;99.90;;;;;;5090642;28;20533;-74
2021/03/31 04:28:52;;;;;;;13.50;7.57;;;5.40;99.90;;;;;;5090804;28;20473;-73
2021/03/31 04:31:22;;;;;;;13.63;7.80;;;5.50;99.90;;;;;;5095569;28;20541;-73
2021/03/31 04:33:50;;;;;;;10.33;8.10;;;5.50;99.90;;;;;;5093245;28;20438;-76
2021/03/31 04:36:17;;;;;;;10.00;7.80;;;5.40;99.90;;;;;;5090485;28;20469;-75
2021/03/31 04:38:45;;;;;;;9.70;7.20;;;5.50;99.90;;;;;;5091411;28;21163;-74
2021/03/31 04:41:12;;;;;;;14.70;10.30;;;5.50;99.90;;;;;;5091144;28;20664;-73
2021/03/31 04:43:38;;;;;;;10.57;7.60;;;5.50;99.90;;;;;;5090903;28;20481;-73
2021/03/31 04:46:08;;;;;;;11.80;8.37;;;5.50;99.90;;;;;;5090630;28;20537;-73
2021/03/31 04:48:34;;;;;;;13.20;7.37;;;5.50;99.90;;;;;;5090553;28;20481;-76
2021/03/31 04:51:01;;;;;;;8.70;7.27;;;5.50;99.90;;;;;;5095662;28;20547;-73
2021/03/31 04:53:27;;;;;;;13.97;8.10;;;5.50;99.90;;;;;;5092277;28;20525;-73
2021/03/31 04:55:54;;;;;;;13.40;7.63;;;5.50;99.90;;;;;;5100803;28;20897;-73
2021/03/31 04:58:21;;;;;;;10.20;8.10;;;5.50;99.90;;;;;;5110643;28;20476;-73
2021/03/31 05:00:47;;;;;;;12.13;7.73;;;5.50;99.90;;;;;;5109896;28;20533;-72
2021/03/31 05:03:14;;;;;;;13.63;8.37;;;5.50;99.90;;;;;;5110422;28;20485;-74
2021/03/31 05:05:41;;;;;;;10.30;7.83;;;5.50;99.90;;;;;;5110665;28;20441;-74
2021/03/31 05:08:07;;;;;;;12.07;9.10;;;5.50;99.90;;;;;;5110249;28;20579;-72
2021/03/31 05:10:34;;;;;;;11.93;6.70;;;5.60;99.90;;;;;;5110549;28;20475;-74
2021/03/31 05:13:01;;;;;;;10.47;7.40;;;5.60;99.90;;;;;;5110632;28;20700;-74
2021/03/31 05:15:27;;;;;;;11.90;7.80;;;5.60;99.90;;;;;;5110421;28;20498;-74
2021/03/31 05:17:55;;;;;;;12.83;8.00;;;5.60;99.90;;;;;;5107572;28;20575;-72
2021/03/31 05:20:22;;;;;;;13.97;8.87;;;5.70;99.90;;;;;;5095293;28;20521;-72
2021/03/31 05:22:48;;;;;;;9.97;7.53;;;5.80;99.90;;;;;;5099808;28;20481;-73
2021/03/31 05:25:16;;;;;;;11.53;8.17;;;5.80;99.90;;;;;;5098776;28;20541;-74
2021/03/31 05:27:42;;;;;;;14.57;8.03;;;5.80;99.90;;;;;;5100026;28;20548;-75
2021/03/31 05:30:10;;;;;;;11.83;8.23;;;5.80;99.90;;;;;;5089711;28;20536;-75
2021/03/31 05:32:36;;;;;;;15.03;7.87;;;5.90;99.90;;;;;;5089834;28;20468;-74
2021/03/31 05:35:04;;;;;;;9.07;7.50;;;5.90;99.90;;;;;;5089707;28;20517;-75
2021/03/31 05:37:31;;;;;;;10.97;8.80;;;5.90;99.90;;;;;;5089796;28;20612;-75
2021/03/31 05:39:57;;;;;;;11.20;7.63;;;5.90;99.90;;;;;;5089834;28;20538;-74
2021/03/31 05:42:24;;;;;;;12.97;9.60;;;6.00;99.90;;;;;;5089797;28;20486;-74
2021/03/31 05:44:50;;;;;;;12.47;8.53;;;6.00;99.90;;;;;;5089731;28;20529;-74
2021/03/31 05:47:22;;;;;;;12.77;9.47;;;6.10;99.90;;;;;;5089729;28;20549;-75
2021/03/31 05:49:49;;;;;;;11.57;8.77;;;6.20;99.90;;;;;;5090587;28;20953;-75
2021/03/31 05:52:15;;;;;;;15.87;8.70;;;6.30;99.90;;;;;;5089957;28;20579;-74
2021/03/31 05:54:43;;;;;;;17.27;9.70;;;6.40;99.90;;;;;;5089130;28;20533;-73
2021/03/31 05:57:09;;;;;;;10.87;9.27;;;6.50;99.90;;;;;;5089543;28;20549;-74
2021/03/31 05:59:37;;;;;;;17.87;9.70;;;6.60;99.90;;;;;;5088663;28;20538;-73
2021/03/31 06:02:05;;;;;;;17.90;9.30;;;6.70;99.90;;;;;;5089434;28;20533;-75
2021/03/31 06:04:34;;;;;;;15.43;10.13;;;6.80;99.90;;;;;;5089320;28;20537;-73
2021/03/31 06:07:03;;;;;;;12.77;9.27;;;6.90;99.90;;;;;;5089373;28;20541;-73
2021/03/31 06:09:29;;;;;;;13.30;9.20;;;7.00;99.90;;;;;;5088916;28;20842;-73
2021/03/31 06:11:57;;;;;;;14.17;11.00;;;7.10;99.90;;;;;;5089352;28;20529;-73
2021/03/31 06:14:37;;;;;;;15.50;10.23;;;7.10;99.90;;;;;;5092633;28;20453;-73
2021/03/31 06:17:05;;;;;;;11.67;9.80;;;7.10;99.90;;;;;;5092660;28;20470;-74
2021/03/31 06:19:32;;;;;;;14.20;9.90;;;7.20;99.90;;;;;;5092417;28;20533;-72
2021/03/31 06:22:06;;;;;;;13.90;10.17;;;7.30;99.90;;;;;;5093151;28;20522;-75
2021/03/31 06:24:42;;;;;;;10.10;8.97;;;7.40;99.90;;;;;;5092559;28;21022;-73
2021/03/31 06:27:10;;;;;;;14.83;9.90;;;7.50;99.90;;;;;;5092513;28;20462;-72
2021/03/31 06:29:38;;;;;;;13.43;9.87;;;7.60;99.90;;;;;;5092426;28;20524;-71
2021/03/31 06:32:15;;;;;;;14.57;10.10;;;7.80;99.90;;;;;;5092695;28;20442;-71
2021/03/31 06:34:52;;;;;;;13.67;9.63;;;8.00;99.90;;;;;;5092668;28;20488;-71
2021/03/31 06:37:34;;;;;;;12.93;9.00;;;8.10;99.90;;;;;;5092284;28;20470;-70
2021/03/31 06:40:01;;;;;;;11.53;9.17;;;8.20;99.90;;;;;;5092210;28;20481;-71
2021/03/31 06:42:36;;;;;;;14.13;9.50;;;8.40;99.90;;;;;;5092330;28;20473;-71
2021/03/31 06:45:07;;;;;;;23.70;10.73;;;8.50;99.90;;;;;;5092343;28;20449;-71
2021/03/31 06:47:36;;;;;;;11.83;9.33;;;8.70;99.90;;;;;;5092124;28;21188;-71
2021/03/31 06:50:09;;;;;;;13.93;10.03;;;8.80;99.90;;;;;;5091838;28;20537;-72
2021/03/31 06:52:51;;;;;;;14.70;9.17;;;8.90;99.90;;;;;;5092502;28;20525;-71
2021/03/31 06:55:18;;;;;;;15.70;9.27;;;9.00;99.90;;;;;;5092013;28;20453;-74
2021/03/31 06:57:51;;;;;;;14.03;10.03;;;9.10;99.90;;;;;;5092012;28;20554;-75
2021/03/31 07:00:24;;;;;;;10.80;9.10;;;9.30;99.90;;;;;;5092128;28;20474;-75
2021/03/31 07:02:52;;;;;;;14.10;9.20;;;9.40;99.90;;;;;;5091965;28;20603;-75
2021/03/31 07:05:19;;;;;;;11.63;9.20;;;9.50;99.90;;;;;;5092015;28;20450;-76
2021/03/31 07:07:45;;;;;;;9.40;8.33;;;9.50;99.90;;;;;;5092031;28;20540;-73
2021/03/31 07:10:14;;;;;;;12.07;9.33;;;9.60;99.90;;;;;;5091372;28;20454;-73
2021/03/31 07:12:42;;;;;;;13.00;9.27;;;9.80;99.90;;;;;;5091618;28;20442;-73
2021/03/31 07:15:12;;;;;;;11.63;9.60;;;9.80;99.90;;;;;;5091103;28;20529;-73
2021/03/31 07:17:42;;;;;;;11.47;9.43;;;10.00;99.90;;;;;;5091568;28;20502;-72
2021/03/31 07:20:09;;;;;;;12.97;9.27;;;10.00;99.90;;;;;;5091549;28;20464;-73
2021/03/31 07:22:36;;;;;;;16.50;10.23;;;10.00;99.90;;;;;;5090413;28;20615;-73
2021/03/31 07:25:03;;;;;;;15.47;10.07;;;10.20;99.90;;;;;;5090838;28;20478;-73
2021/03/31 07:27:31;;;;;;;18.27;9.80;;;10.40;99.90;;;;;;5091325;28;20550;-73
2021/03/31 07:30:09;;;;;;;15.57;9.83;;;10.50;99.90;;;;;;5091063;28;20450;-73
2021/03/31 07:32:49;;;;;;;22.57;10.20;;;10.60;99.90;;;;;;5091475;28;20449;-73
2021/03/31 07:35:17;;;;;;;15.30;10.60;;;10.80;99.90;;;;;;5091513;28;20438;-73
2021/03/31 07:37:45;;;;;;;16.20;9.33;;;10.90;99.90;;;;;;5091342;28;20466;-73
2021/03/31 07:40:13;;;;;;;11.53;9.43;;;11.10;99.90;;;;;;5091023;28;20805;-73
2021/03/31 07:42:44;;;;;;;13.37;9.77;;;11.10;99.90;;;;;;5091526;28;20470;-73
2021/03/31 07:45:12;;;;;;;19.97;10.33;;;11.20;99.90;;;;;;5091472;28;20535;-73
2021/03/31 07:47:41;;;;;;;15.30;9.87;;;11.40;99.90;;;;;;5091206;28;20470;-73
2021/03/31 07:50:10;;;;;;;13.00;10.60;;;11.50;99.90;;;;;;5090911;28;20488;-73
2021/03/31 07:52:57;;;;;;;11.73;8.70;;;11.60;99.90;;;;;;5091146;28;20526;-73
2021/03/31 07:55:31;;;;;;;11.77;8.87;;;11.70;99.90;;;;;;5090880;28;20524;-73
2021/03/31 07:58:26;;;;;;;11.80;8.90;;;11.80;99.90;;;;;;5091001;28;20545;-73
2021/03/31 08:00:59;;;;;;;10.70;9.67;;;11.90;99.90;;;;;;5090519;28;21110;-73
2021/03/31 08:03:27;;;;;;;17.97;11.27;;;12.10;99.90;;;;;;5090766;28;20514;-72
2021/03/31 08:06:09;;;;;;;12.00;9.80;;;12.20;99.90;;;;;;5090905;28;20540;-73
2021/03/31 08:08:37;;;;;;;11.97;9.40;;;12.40;99.90;;;;;;5090771;28;20474;-73
2021/03/31 08:11:04;;;;;;;13.97;9.27;;;12.60;99.90;;;;;;5090495;28;20583;-73
2021/03/31 08:13:33;;;;;;;15.97;8.37;;;12.70;99.90;;;;;;5090810;28;20623;-73
2021/03/31 08:16:02;;;;;;;10.63;9.53;;;12.90;99.90;;;;;;5090941;28;20787;-73
2021/03/31 08:18:29;;;;;;;16.20;9.43;;;13.00;99.90;;;;;;5090852;28;20570;-73
2021/03/31 08:20:56;;;;;;;13.43;9.80;;;13.10;99.90;;;;;;5090502;28;20537;-73
2021/03/31 08:23:48;;;;;;;11.33;9.47;;;13.20;99.90;;;;;;5090402;28;21283;-73
2021/03/31 08:26:28;;;;;;;12.70;9.67;;;13.40;99.90;;;;;;5090525;28;20541;-73
2021/03/31 08:28:54;;;;;;;12.53;8.90;;;13.50;99.90;;;;;;5090425;28;20541;-73
2021/03/31 08:31:22;;;;;;;12.60;9.27;;;13.70;99.90;;;;;;5090118;28;20748;-73
2021/03/31 08:33:49;;;;;;;16.30;9.27;;;13.80;99.90;;;;;;5090347;28;20537;-73
2021/03/31 08:36:16;;;;;;;11.20;9.63;;;14.00;99.90;;;;;;5090247;28;20470;-73
2021/03/31 08:38:48;;;;;;;11.73;9.23;;;14.20;99.90;;;;;;5090187;28;20493;-73
2021/03/31 08:41:17;;;;;;;11.37;9.37;;;14.40;99.90;;;;;;5090177;28;20470;-73
2021/03/31 08:43:45;;;;;;;15.23;9.80;;;14.60;99.90;;;;;;5090165;28;20569;-73
2021/03/31 08:46:11;;;;;;;11.67;9.80;;;14.80;99.60;;;;;;5090398;28;20445;-73
2021/03/31 08:48:40;;;;;;;13.60;9.53;;;14.90;99.90;;;;;;5089965;28;20473;-72
2021/03/31 08:51:08;;;;;;;13.50;10.20;;;15.10;99.30;;;;;;5089933;28;20531;-73
2021/03/31 08:53:35;;;;;;;11.63;9.93;;;15.30;98.40;;;;;;5090096;28;21001;-73
2021/03/31 08:56:03;;;;;;;13.60;9.83;;;15.50;97.70;;;;;;5089919;28;20481;-73
2021/03/31 08:58:30;;;;;;;16.33;11.03;;;15.70;97.20;;;;;;5090155;28;20470;-72
2021/03/31 09:00:59;;;;;;;18.83;11.47;;;16.00;97.80;;;;;;5089878;28;20525;-72
2021/03/31 09:03:30;;;;;;;18.03;11.00;;;16.10;98.10;;;;;;5089767;28;20568;-72
2021/03/31 09:05:58;;;;;;;12.73;10.20;;;16.30;97.60;;;;;;5089988;28;20442;-72
2021/03/31 09:08:26;;;;;;;12.70;10.70;;;16.40;96.80;;;;;;5090085;28;20481;-72
2021/03/31 09:10:54;;;;;;;14.80;10.97;;;16.60;96.80;;;;;;5089502;28;20541;-72
2021/03/31 09:13:29;;;;;;;20.13;11.00;;;16.70;96.60;;;;;;5090067;28;20487;-72
2021/03/31 09:15:58;;;;;;;17.13;10.77;;;16.80;95.10;;;;;;5089830;28;20480;-72
2021/03/31 09:18:25;;;;;;;15.73;11.10;;;17.00;95.50;;;;;;5089875;28;20570;-72
2021/03/31 09:20:52;;;;;;;15.07;10.07;;;17.30;94.30;;;;;;5089728;28;20533;-72
2021/03/31 09:23:20;;;;;;;12.57;11.27;;;17.60;94.70;;;;;;5089790;28;20572;-72
2021/03/31 09:25:57;;;;;;;15.40;11.80;;;18.00;94.20;;;;;;5089665;28;20529;-72
2021/03/31 09:28:23;;;;;;;17.40;11.90;;;18.50;92.60;;;;;;5089716;28;20465;-72
2021/03/31 09:30:52;;;;;;;13.90;10.90;;;19.00;91.90;;;;;;5089673;28;20473;-72
2021/03/31 09:33:26;;;;;;;12.23;11.03;;;19.70;91.50;;;;;;5089929;28;20795;-72
2021/03/31 09:35:53;;;;;;;12.20;10.30;;;20.10;90.00;;;;;;5089842;28;20528;-73
2021/03/31 09:38:27;;;;;;;15.23;12.00;;;20.40;89.40;;;;;;5089586;28;20462;-72
2021/03/31 09:41:01;;;;;;;13.73;10.00;;;20.80;86.90;;;;;;5089285;28;20580;-72
2021/03/31 09:43:30;;;;;;;17.93;12.03;;;21.20;83.50;;;;;;5089428;28;20477;-72
2021/03/31 09:45:57;;;;;;;15.40;12.30;;;21.40;81.10;;;;;;5089488;28;20446;-72
2021/03/31 09:48:25;;;;;;;14.13;12.63;;;21.50;77.30;;;;;;5091787;28;20489;-73
2021/03/31 09:50:53;;;;;;;15.57;12.17;;;21.70;78.10;;;;;;5093247;28;20481;-72
2021/03/31 09:53:23;;;;;;;21.40;12.50;;;22.00;77.40;;;;;;5093459;28;20474;-72
2021/03/31 09:55:50;;;;;;;13.53;10.83;;;21.80;75.70;;;;;;5093206;28;20745;-72
2021/03/31 09:58:24;;;;;;;13.93;11.67;;;21.90;74.90;;;;;;5093119;28;20516;-73
2021/03/31 10:00:52;;;;;;;15.70;11.60;;;22.00;73.90;;;;;;5092864;28;20937;-72
2021/03/31 10:03:19;;;;;;;17.07;12.60;;;22.10;72.70;;;;;;5092974;28;20507;-72
2021/03/31 10:05:46;;;;;;;12.90;11.67;;;22.20;71.60;;;;;;5093140;28;20514;-72
2021/03/31 10:08:22;;;;;;;18.10;12.20;;;22.40;72.20;;;;;;5092417;28;20501;-72
2021/03/31 10:10:49;;;;;;;14.47;11.57;;;22.80;68.50;;;;;;5092717;28;20449;-73
2021/03/31 10:13:17;;;;;;;15.47;12.03;;;23.00;68.90;;;;;;5093082;28;20481;-73
2021/03/31 10:15:46;;;;;;;15.60;12.33;;;23.00;65.80;;;;;;5093237;28;20502;-76
2021/03/31 10:18:14;;;;;;;18.00;12.20;;;23.20;67.40;;;;;;5092982;28;20474;-75
2021/03/31 10:20:47;;;;;;;16.37;11.50;;;23.30;66.50;;;;;;5092420;28;20474;-76
2021/03/31 10:23:30;;;;;;;16.43;12.20;;;23.50;66.10;;;;;;5093639;28;20477;-77
2021/03/31 10:26:18;;;;;;;13.47;11.53;;;23.40;63.90;;;;;;5095733;28;20450;-76
2021/03/31 10:28:45;;;;;;;16.53;11.53;;;23.50;66.40;;;;;;5092804;28;20501;-75
2021/03/31 10:31:27;;;;;;;15.10;12.53;;;23.80;64.10;;;;;;5091253;28;20525;-78
2021/03/31 10:33:55;;;;;;;16.03;10.83;;;24.10;61.50;;;;;;5092756;28;20529;-75
2021/03/31 10:36:53;;;;;;;14.50;11.40;;;24.40;62.70;;;;;;5092349;28;20523;-76
2021/03/31 10:48:03;;;;;;;15.13;11.90;;;25.80;55.30;;;;;;5074873;28;20454;-75
2021/03/31 10:50:36;;;;;;;17.53;12.30;;;26.10;55.70;;;;;;5108693;27;20456;-76
2021/03/31 10:53:04;;;;;;;14.63;11.30;;;26.40;55.80;;;;;;5119792;27;20429;-76
2021/03/31 10:55:31;;;;;;;14.50;11.27;;;26.70;54.20;;;;;;5128200;27;20436;-76
2021/03/31 10:57:57;;;;;;;12.80;11.00;;;27.00;52.50;;;;;;5133080;27;20464;-77
2021/03/31 11:00:24;;;;;;;12.80;10.43;;;27.40;51.90;;;;;;5127922;27;20553;-75
2021/03/31 11:02:50;;;;;;;12.53;10.73;;;27.90;52.20;;;;;;5126873;27;20530;-74
2021/03/31 11:05:17;;;;;;;16.50;12.17;;;28.20;50.30;;;;;;5132848;27;20452;-77
2021/03/31 11:07:43;;;;;;;12.57;11.20;;;28.00;47.20;;;;;;5132915;27;20492;-76
2021/03/31 11:10:13;;;;;;;19.17;11.83;;;27.10;48.10;;;;;;5132531;27;20539;-78
2021/03/31 11:12:39;;;;;;;15.10;11.10;;;26.60;48.00;;;;;;5132530;27;20539;-76
2021/03/31 11:15:09;;;;;;;17.97;11.47;;;26.90;47.30;;;;;;5133116;27;20459;-75
2021/03/31 11:17:41;;;;;;;12.27;10.77;;;27.30;47.10;;;;;;5105477;28;20498;-75
2021/03/31 11:20:18;;;;;;;16.50;11.47;;;27.80;47.10;;;;;;5099261;27;20453;-75
2021/03/31 11:25:49;;;;;;;11.77;10.20;;;28.40;45.70;;;;;;5101009;27;20505;-72
2021/03/31 11:28:15;;;;;;;14.83;11.00;;;28.30;45.10;;;;;;5102443;27;20449;-72
2021/03/31 11:30:42;;;;;;;14.30;11.60;;;28.00;44.00;;;;;;5098514;28;20507;-69
2021/03/31 11:33:08;;;;;;;12.67;10.17;;;27.70;44.70;;;;;;5101246;28;20517;-69
2021/03/31 11:35:35;;;;;;;14.30;11.30;;;28.10;44.20;;;;;;5097652;28;20578;-71
2021/03/31 11:38:01;;;;;;;15.10;11.83;;;27.90;42.40;;;;;;5100012;28;20472;-70
2021/03/31 11:40:31;;;;;;;13.70;11.20;;;28.10;41.70;;;;;;5108844;27;20443;-69
2021/03/31 11:42:58;;;;;;;14.67;10.67;;;28.60;40.50;;;;;;5113012;27;20511;-70
2021/03/31 11:45:26;;;;;;;12.50;10.93;;;29.10;40.30;;;;;;5102165;28;20484;-70
2021/03/31 11:47:52;;;;;;;17.50;13.10;;;29.90;41.10;;;;;;5105892;27;20480;-71
2021/03/31 11:50:19;;;;;;;12.17;10.97;;;30.20;39.60;;;;;;5107536;27;20529;-71
2021/03/31 11:52:46;;;;;;;12.57;11.27;;;29.40;39.80;;;;;;5105423;27;20449;-70
2021/03/31 11:55:12;;;;;;;16.13;11.90;;;29.00;40.90;;;;;;5103938;27;20445;-72
2021/03/31 11:57:38;;;;;;;11.90;10.60;;;28.80;40.70;;;;;;5104319;27;20568;-69
2021/03/31 12:00:07;;;;;;;14.37;11.00;;;29.50;40.00;;;;;;5102236;28;20537;-69
2021/03/31 12:02:33;;;;;;;14.90;11.93;;;29.50;40.60;;;;;;5105947;27;21454;-70
2021/03/31 12:05:00;;;;;;;16.23;13.67;;;29.80;38.90;;;;;;5091563;27;20446;-69
2021/03/31 12:07:27;;;;;;;14.30;12.80;;;30.00;38.80;;;;;;5092136;28;20546;-70
2021/03/31 12:09:54;;;;;;;14.40;11.90;;;30.20;40.00;;;;;;5088578;28;20928;-72
2021/03/31 12:12:20;;;;;;;15.47;11.37;;;31.50;37.80;;;;;;5090154;28;20521;-69
2021/03/31 12:14:47;;;;;;;14.33;12.83;;;31.70;37.80;;;;;;5096224;28;20556;-72
2021/03/31 12:17:14;;;;;;;15.00;12.17;;;32.30;38.20;;;;;;5105244;28;20552;-70
2021/03/31 12:19:41;;;;;;;14.87;11.70;;;32.50;36.30;;;;;;5102084;28;20571;-72
2021/03/31 12:22:07;;;;;;;16.90;12.20;;;33.10;35.40;;;;;;5105103;28;20529;-73
2021/03/31 12:24:34;;;;;;;14.13;11.33;;;33.50;35.00;;;;;;5089653;28;20512;-73
2021/03/31 12:27:03;;;;;;;17.57;14.33;;;34.30;33.60;;;;;;5088741;28;21063;-73
2021/03/31 12:29:29;;;;;;;17.80;11.50;;;34.60;32.80;;;;;;5089028;28;20537;-74
2021/03/31 12:31:56;;;;;;;13.90;11.53;;;33.50;32.80;;;;;;5088050;28;20442;-72
2021/03/31 12:34:23;;;;;;;16.83;12.40;;;32.70;33.30;;;;;;5088135;28;20434;-72
2021/03/31 12:36:50;;;;;;;13.73;12.13;;;32.00;33.20;;;;;;5088067;28;20484;-74
2021/03/31 12:39:16;;;;;;;16.13;12.90;;;31.90;34.20;;;;;;5087881;28;20489;-73
2021/03/31 12:41:43;;;;;;;15.87;12.10;;;31.20;34.80;;;;;;5089570;28;20525;-71
2021/03/31 12:44:09;;;;;;;14.67;12.87;;;31.70;36.00;;;;;;5090067;28;20480;-70
2021/03/31 12:46:35;;;;;;;17.90;13.60;;;32.90;33.90;;;;;;5089316;28;20446;-70
2021/03/31 12:49:02;;;;;;;20.20;14.70;;;31.20;33.30;;;;;;5089114;28;20481;-73
2021/03/31 12:51:33;;;;;;;15.00;13.40;;;30.70;36.80;;;;;;5093301;28;20484;-75
2021/03/31 12:54:05;;;;;;;20.20;13.83;;;31.80;36.30;;;;;;5093958;27;20455;-73
2021/03/31 12:56:32;;;;;;;19.67;15.30;;;30.50;34.60;;;;;;5101837;27;20438;-73
2021/03/31 12:58:59;;;;;;;16.13;13.30;;;29.90;35.90;;;;;;5097185;27;20450;-73
2021/03/31 13:01:26;;;;;;;14.97;13.03;;;30.80;35.70;;;;;;5095860;28;21019;-73